createdAt,value
2022-10-11T00:01:30.486Z,9.63
2022-10-11T00:03:57.498Z,11.75
2022-10-11T00:06:24.559Z,8.68
2022-10-11T00:08:51.583Z,8.73
2022-10-11T00:11:18.590Z,9.10
2022-10-11T00:13:45.659Z,10.45
2022-10-11T00:16:14.156Z,11.48
2022-10-11T00:18:41.222Z,9.00
2022-10-11T00:21:09.676Z,9.57
2022-10-11T00:23:36.715Z,10.30
2022-10-11T00:26:05.214Z,13.90
2022-10-11T00:28:32.864Z,10.35
2022-10-11T00:31:00.019Z,11.38
2022-10-11T00:33:27.160Z,9.07
2022-10-11T00:35:54.301Z,10.13
2022-10-11T00:38:21.357Z,7.20
2022-10-11T00:40:48.359Z,11.25
2022-10-11T00:43:17.110Z,10.32
2022-10-11T00:46:04.813Z,9.98
2022-10-11T00:48:38.594Z,10.05
2022-10-11T00:51:08.416Z,11.18
2022-10-11T00:53:35.750Z,10.48
2022-10-11T00:56:05.337Z,11.18
2022-10-11T00:58:34.434Z,10.73
2022-10-11T01:01:01.583Z,11.15
2022-10-11T01:03:29.485Z,11.20
2022-10-11T01:05:56.511Z,11.30
2022-10-11T01:08:23.727Z,8.98
2022-10-11T01:10:51.262Z,11.90
2022-10-11T01:13:24.173Z,17.77
2022-10-11T01:15:54.562Z,7.10
2022-10-11T01:18:31.703Z,9.48
2022-10-11T01:21:13.827Z,7.80
2022-10-11T01:23:46.832Z,9.48
2022-10-11T01:26:29.995Z,9.55
2022-10-11T01:28:59.976Z,11.02
2022-10-11T01:31:30.176Z,10.32
2022-10-11T01:34:06.180Z,11.27
2022-10-11T01:36:53.410Z,11.48
2022-10-11T01:39:23.291Z,8.13
2022-10-11T01:41:51.922Z,11.35
2022-10-11T01:44:19.096Z,11.05
2022-10-11T01:46:46.131Z,12.10
2022-10-11T01:49:13.125Z,7.65
2022-10-11T01:51:47.006Z,14.40
2022-10-11T01:54:22.432Z,9.82
2022-10-11T01:57:09.721Z,8.52
2022-10-11T01:59:53.085Z,10.93
2022-10-11T02:02:27.672Z,11.93
2022-10-11T02:05:14.933Z,9.32
2022-10-11T02:07:49.002Z,9.82
2022-10-11T02:10:26.600Z,14.43
2022-10-11T02:13:03.672Z,13.07
2022-10-11T02:15:32.149Z,11.23
2022-10-11T02:18:01.461Z,10.02
2022-10-11T02:20:29.748Z,12.88
2022-10-11T02:23:07.067Z,11.57
2022-10-11T02:25:35.766Z,14.40
2022-10-11T02:28:04.948Z,12.10
2022-10-11T02:30:32.643Z,12.88
2022-10-11T02:33:00.886Z,13.32
2022-10-11T02:35:29.953Z,7.85
2022-10-11T02:38:00.264Z,11.35
2022-10-11T02:40:32.720Z,10.85
2022-10-11T02:43:02.076Z,12.85
2022-10-11T02:45:32.085Z,11.65
2022-10-11T02:47:59.212Z,9.82
2022-10-11T02:50:27.217Z,12.60
2022-10-11T02:52:54.209Z,12.82
2022-10-11T02:55:21.394Z,12.23
2022-10-11T02:57:48.431Z,10.55
2022-10-11T03:00:15.583Z,11.23
2022-10-11T03:02:42.779Z,14.60
2022-10-11T03:05:09.852Z,10.70
2022-10-11T03:07:36.911Z,12.43
2022-10-11T03:10:04.397Z,10.13
2022-10-11T03:12:31.420Z,10.93
2022-10-11T03:14:58.413Z,12.02
2022-10-11T03:17:38.210Z,11.43
2022-10-11T03:20:06.562Z,9.98
2022-10-11T03:22:33.580Z,10.73
2022-10-11T03:25:04.104Z,9.70
2022-10-11T03:27:32.107Z,8.30
2022-10-11T03:29:59.103Z,9.68
2022-10-11T03:32:26.216Z,11.82
2022-10-11T03:34:53.257Z,16.65
2022-10-11T03:37:20.269Z,13.68
2022-10-11T03:39:47.317Z,11.07
2022-10-11T03:42:14.621Z,17.42
2022-10-11T03:44:42.136Z,11.68
2022-10-11T03:47:09.556Z,10.55
2022-10-11T03:49:39.998Z,10.48
2022-10-11T03:52:10.588Z,10.32
2022-10-11T03:54:37.702Z,9.77
2022-10-11T03:57:04.762Z,8.43
2022-10-11T03:59:31.817Z,11.45
2022-10-11T04:01:59.177Z,8.75
2022-10-11T04:04:26.261Z,10.20
2022-10-11T04:06:53.490Z,11.85
2022-10-11T04:09:20.507Z,11.52
2022-10-11T04:11:47.547Z,9.85
2022-10-11T04:14:14.585Z,8.18
2022-10-11T04:16:42.075Z,12.65
2022-10-11T04:19:09.106Z,11.05
2022-10-11T04:21:36.123Z,10.05
2022-10-11T04:24:03.148Z,8.63
2022-10-11T04:26:30.179Z,9.57
2022-10-11T04:28:57.406Z,9.82
2022-10-11T04:31:24.873Z,10.50
2022-10-11T04:33:51.971Z,8.88
2022-10-11T04:36:18.951Z,9.57
2022-10-11T04:38:45.990Z,9.65
2022-10-11T04:41:14.125Z,13.65
2022-10-11T04:43:41.211Z,10.50
2022-10-11T04:46:09.560Z,8.55
2022-10-11T04:48:37.124Z,7.53
2022-10-11T04:51:04.522Z,12.50
2022-10-11T04:53:31.576Z,11.98
2022-10-11T04:56:06.249Z,10.15
2022-10-11T04:58:34.644Z,8.45
2022-10-11T05:01:01.641Z,9.90
2022-10-11T05:03:28.813Z,7.43
2022-10-11T05:05:56.135Z,10.43
2022-10-11T05:08:23.367Z,8.25
2022-10-11T05:10:56.989Z,8.23
2022-10-11T05:13:24.577Z,10.18
2022-10-11T05:15:51.742Z,10.55
2022-10-11T05:18:18.796Z,10.07
2022-10-11T05:20:45.877Z,11.82
2022-10-11T05:23:12.934Z,11.95
2022-10-11T05:25:39.947Z,14.50
2022-10-11T05:28:07.199Z,18.08
2022-10-11T05:30:34.345Z,16.58
2022-10-11T05:33:01.371Z,16.67
2022-10-11T05:35:28.388Z,15.57
2022-10-11T05:37:55.396Z,16.70
2022-10-11T05:40:22.375Z,15.93
2022-10-11T05:42:49.362Z,16.25
2022-10-11T05:45:16.395Z,10.98
2022-10-11T05:47:43.373Z,12.23
2022-10-11T05:50:10.706Z,11.38
2022-10-11T05:52:37.799Z,16.77
2022-10-11T05:55:05.114Z,16.73
2022-10-11T05:57:32.094Z,11.80
2022-10-11T05:59:59.074Z,14.15
2022-10-11T06:02:26.101Z,13.32
2022-10-11T06:04:53.154Z,13.38
2022-10-11T06:07:20.150Z,12.52
2022-10-11T06:09:47.136Z,15.23
2022-10-11T06:12:14.141Z,16.35
2022-10-11T06:14:41.167Z,14.15
2022-10-11T06:17:08.195Z,8.15
2022-10-11T06:19:35.356Z,9.95
2022-10-11T06:22:02.492Z,13.75
2022-10-11T06:24:29.497Z,12.45
2022-10-11T06:26:56.597Z,10.85
2022-10-11T06:29:23.621Z,11.13
2022-10-11T06:31:50.650Z,11.85
2022-10-11T06:34:17.630Z,13.57
2022-10-11T06:36:44.594Z,13.43
2022-10-11T06:39:11.666Z,10.25
2022-10-11T06:41:38.719Z,12.10
2022-10-11T06:44:07.196Z,9.50
2022-10-11T06:46:35.771Z,10.23
2022-10-11T06:49:02.753Z,11.75
2022-10-11T06:51:30.228Z,11.40
2022-10-11T06:53:58.479Z,12.65
2022-10-11T06:56:26.577Z,10.93
2022-10-11T06:58:54.006Z,11.15
2022-10-11T07:01:21.407Z,9.05
2022-10-11T07:03:48.800Z,11.38
2022-10-11T07:06:17.329Z,10.13
2022-10-11T07:08:44.598Z,9.27
2022-10-11T07:11:15.889Z,9.85
2022-10-11T07:13:43.141Z,10.52
2022-10-11T07:16:11.692Z,10.20
2022-10-11T07:18:39.207Z,12.90
2022-10-11T07:21:07.390Z,12.15
2022-10-11T07:23:34.894Z,9.57
2022-10-11T07:26:02.272Z,12.93
2022-10-11T07:28:30.592Z,12.15
2022-10-11T07:30:58.678Z,14.25
2022-10-11T07:33:25.797Z,9.77
2022-10-11T07:35:57.484Z,9.70
2022-10-11T07:38:24.979Z,10.55
2022-10-11T07:40:52.258Z,12.90
2022-10-11T07:43:20.752Z,11.23
2022-10-11T07:45:48.806Z,12.70
2022-10-11T07:48:15.989Z,13.13
2022-10-11T07:50:43.045Z,11.82
2022-10-11T07:53:10.087Z,10.90
2022-10-11T07:55:41.970Z,13.55
2022-10-11T07:58:09.975Z,10.75
2022-10-11T08:00:37.299Z,10.77
2022-10-11T08:03:05.058Z,9.57
2022-10-11T08:05:32.379Z,15.38
2022-10-11T08:07:59.384Z,8.88
2022-10-11T08:10:27.264Z,11.63
2022-10-11T08:12:54.242Z,11.30
2022-10-11T08:15:21.593Z,12.57
2022-10-11T08:17:48.607Z,11.93
2022-10-11T08:20:15.700Z,10.27
2022-10-11T08:22:42.703Z,14.20
2022-10-11T08:25:09.870Z,15.35
2022-10-11T08:27:36.970Z,9.25
2022-10-11T08:30:04.658Z,15.98
2022-10-11T08:32:31.660Z,10.43
2022-10-11T08:34:58.731Z,11.18
2022-10-11T08:37:25.760Z,11.77
2022-10-11T08:39:52.780Z,11.38
2022-10-11T08:42:29.266Z,13.50
2022-10-11T08:45:10.571Z,11.10
2022-10-11T08:47:40.664Z,11.55
2022-10-11T08:50:08.946Z,16.48
2022-10-11T08:52:54.213Z,9.02
2022-10-11T08:55:30.274Z,8.32
2022-10-11T08:57:57.446Z,15.75
2022-10-11T09:00:24.948Z,6.95
2022-10-11T09:03:08.385Z,12.23
2022-10-11T09:05:36.866Z,10.48
2022-10-11T09:08:10.928Z,14.93
2022-10-11T09:10:40.945Z,10.75
2022-10-11T09:13:07.965Z,9.00
2022-10-11T09:15:37.953Z,11.43
2022-10-11T09:18:13.215Z,13.15
2022-10-11T09:20:58.891Z,11.50
2022-10-11T09:23:25.850Z,13.63
2022-10-11T09:25:55.665Z,10.95
2022-10-11T09:28:29.170Z,11.15
2022-10-11T09:30:57.115Z,10.55
2022-10-11T09:33:38.979Z,16.45
2022-10-11T09:36:14.784Z,11.43
2022-10-11T09:38:46.804Z,12.63
2022-10-11T09:41:22.475Z,10.73
2022-10-11T09:43:51.570Z,13.45
2022-10-11T09:46:23.687Z,10.75
2022-10-11T09:48:51.988Z,14.18
2022-10-11T09:51:21.438Z,15.38
2022-10-11T09:53:58.879Z,10.85
2022-10-11T09:56:27.014Z,11.27
2022-10-11T09:59:12.575Z,10.27
2022-10-11T10:01:39.609Z,12.95
2022-10-11T10:04:11.095Z,12.00
2022-10-11T10:06:38.587Z,9.73
2022-10-11T10:09:22.714Z,12.25
2022-10-11T10:11:49.832Z,11.82
2022-10-11T10:14:24.748Z,11.65
2022-10-11T10:16:59.767Z,12.80
2022-10-11T10:19:26.948Z,13.43
2022-10-11T10:21:54.902Z,14.18
2022-10-11T10:24:33.908Z,9.50
2022-10-11T10:27:06.943Z,9.88
2022-10-11T10:29:34.088Z,11.70
2022-10-11T10:32:19.215Z,11.63
2022-10-11T10:35:06.544Z,9.65
2022-10-11T10:37:36.889Z,10.30
2022-10-11T10:40:13.879Z,9.52
2022-10-11T10:42:41.032Z,14.45
2022-10-11T10:45:12.585Z,9.52
2022-10-11T10:47:58.950Z,14.30
2022-10-11T10:50:52.153Z,14.40
2022-10-11T10:53:24.675Z,12.35
2022-10-11T10:56:04.932Z,11.45
2022-10-11T10:58:56.344Z,12.23
2022-10-11T11:01:34.064Z,11.57
2022-10-11T11:04:19.290Z,10.13
2022-10-11T11:07:09.512Z,12.95
2022-10-11T11:09:42.723Z,7.38
2022-10-11T11:12:18.244Z,8.95
2022-10-11T11:14:45.290Z,11.43
2022-10-11T11:17:24.704Z,11.90
2022-10-11T11:20:01.690Z,10.30
2022-10-11T11:22:47.604Z,10.50
2022-10-11T11:25:44.696Z,12.70
2022-10-11T11:28:15.290Z,9.43
2022-10-11T11:31:00.986Z,11.57
2022-10-11T11:33:34.318Z,11.35
2022-10-11T11:36:06.708Z,9.25
2022-10-11T11:38:33.990Z,9.18
2022-10-11T11:41:02.650Z,11.07
2022-10-11T11:43:38.088Z,11.00
2022-10-11T11:46:16.908Z,11.73
2022-10-11T11:48:44.096Z,12.77
2022-10-11T11:51:17.777Z,11.65
2022-10-11T11:53:50.821Z,9.93
2022-10-11T11:56:26.349Z,13.30
2022-10-11T11:59:02.986Z,10.32
2022-10-11T12:01:36.029Z,12.23
2022-10-11T12:04:05.049Z,12.83
2022-10-11T12:06:34.631Z,9.25
2022-10-11T12:09:08.364Z,11.85
2022-10-11T12:11:38.125Z,7.43
2022-10-11T12:14:19.418Z,6.50
2022-10-11T12:17:05.164Z,8.60
2022-10-11T12:19:32.197Z,10.38
2022-10-11T12:22:37.640Z,10.35
2022-10-11T12:25:12.794Z,9.70
2022-10-11T12:27:46.483Z,8.60
2022-10-11T12:30:32.216Z,8.38
2022-10-11T12:33:18.046Z,10.82
2022-10-11T12:35:51.241Z,9.63
2022-10-11T12:38:39.250Z,7.28
2022-10-11T12:41:16.866Z,9.70
2022-10-11T12:43:49.860Z,9.50
2022-10-11T12:46:29.042Z,9.18
2022-10-11T12:49:14.951Z,9.10
2022-10-11T12:51:51.065Z,7.07
2022-10-11T12:54:36.918Z,8.75
2022-10-11T12:57:12.303Z,7.20
2022-10-11T12:59:45.017Z,10.80
2022-10-11T13:02:38.406Z,11.80
2022-10-11T13:05:09.241Z,9.20
2022-10-11T13:07:36.488Z,13.00
2022-10-11T13:10:05.063Z,12.25
2022-10-11T13:12:35.918Z,14.05
2022-10-11T13:15:07.012Z,13.63
2022-10-11T13:17:38.417Z,11.02
2022-10-11T13:20:18.366Z,7.75
2022-10-11T13:22:47.378Z,10.70
2022-10-11T13:25:20.880Z,8.98
2022-10-11T13:27:48.996Z,13.38
2022-10-11T13:30:21.107Z,8.98
2022-10-11T13:32:48.424Z,9.85
2022-10-11T13:35:20.998Z,11.18
2022-10-11T13:37:51.055Z,11.40
2022-10-11T13:40:19.639Z,9.95
2022-10-11T13:42:48.415Z,8.43
2022-10-11T13:45:17.528Z,10.75
2022-10-11T13:47:45.233Z,8.73
2022-10-11T13:50:33.528Z,12.43
2022-10-11T13:53:04.891Z,11.35
2022-10-11T13:55:50.988Z,11.85
2022-10-11T13:58:22.046Z,9.50
2022-10-11T14:00:53.894Z,11.77
2022-10-11T14:03:21.900Z,8.07
2022-10-11T14:05:56.728Z,9.25
2022-10-11T14:08:42.252Z,11.68
2022-10-11T14:11:10.352Z,13.85
2022-10-11T14:13:39.480Z,8.18
2022-10-11T14:16:21.647Z,9.73
2022-10-11T14:18:52.451Z,10.75
2022-10-11T14:21:19.442Z,13.57
2022-10-11T14:23:53.813Z,12.13
2022-10-11T14:26:21.760Z,11.40
2022-10-11T14:28:50.755Z,13.38
2022-10-11T14:31:17.886Z,10.20
2022-10-11T14:33:44.997Z,11.35
2022-10-11T14:36:12.003Z,9.65
2022-10-11T14:38:39.040Z,11.50
2022-10-11T14:41:06.210Z,11.55
2022-10-11T14:43:33.268Z,9.85
2022-10-11T14:46:00.322Z,12.82
2022-10-11T14:48:50.229Z,8.65
2022-10-11T14:51:15.365Z,7.47
2022-10-11T14:53:46.175Z,10.77
2022-10-11T14:56:18.953Z,9.70
2022-10-11T14:58:48.289Z,8.98
2022-10-11T15:01:15.933Z,10.07
2022-10-11T15:03:43.358Z,9.65
2022-10-11T15:06:24.442Z,11.75
2022-10-11T15:08:51.815Z,11.07
2022-10-11T15:11:19.798Z,13.52
2022-10-11T15:13:46.921Z,9.60
2022-10-11T15:16:14.986Z,12.25
2022-10-11T15:18:42.017Z,10.50
2022-10-11T15:21:12.429Z,10.70
2022-10-11T15:23:39.462Z,10.10
2022-10-11T15:26:06.823Z,11.75
2022-10-11T15:28:34.269Z,9.95
2022-10-11T15:31:01.381Z,12.48
2022-10-11T15:33:28.461Z,11.77
2022-10-11T15:35:55.577Z,12.85
2022-10-11T15:38:24.058Z,9.68
2022-10-11T15:40:51.354Z,13.18
2022-10-11T15:43:24.196Z,10.27
2022-10-11T15:45:51.713Z,11.35
2022-10-11T15:48:19.344Z,11.10
2022-10-11T15:50:46.511Z,13.05
2022-10-11T15:53:15.097Z,18.30
2022-10-11T15:55:43.764Z,19.38
2022-10-11T15:58:15.358Z,14.02
2022-10-11T16:00:43.184Z,13.95
2022-10-11T16:03:12.413Z,11.80
2022-10-11T16:05:39.662Z,13.55
2022-10-11T16:08:06.907Z,12.32
2022-10-11T16:10:34.038Z,17.75
2022-10-11T16:13:01.815Z,15.27
2022-10-11T16:15:29.087Z,13.52
2022-10-11T16:17:56.158Z,16.40
2022-10-11T16:20:25.576Z,12.90
2022-10-11T16:22:53.726Z,18.08
2022-10-11T16:25:21.424Z,13.23
2022-10-11T16:27:48.429Z,14.90
2022-10-11T16:30:16.212Z,12.45
2022-10-11T16:32:44.363Z,13.15
2022-10-11T16:35:12.280Z,11.15
2022-10-11T16:37:39.445Z,15.20
2022-10-11T16:40:07.610Z,12.50
2022-10-11T16:42:35.089Z,10.98
2022-10-11T16:45:02.144Z,14.52
2022-10-11T16:47:29.141Z,13.18
2022-10-11T16:49:56.353Z,11.10
2022-10-11T16:52:23.399Z,14.82
2022-10-11T16:54:50.415Z,11.40
2022-10-11T16:57:18.421Z,11.52
2022-10-11T16:59:45.650Z,12.13
2022-10-11T17:02:21.061Z,15.50
2022-10-11T17:04:50.488Z,12.98
2022-10-11T17:07:17.823Z,13.75
2022-10-11T17:09:45.465Z,19.70
2022-10-11T17:12:13.183Z,13.88
2022-10-11T17:14:41.055Z,13.77
2022-10-11T17:17:09.180Z,20.90
2022-10-11T17:19:41.343Z,15.15
2022-10-11T17:22:11.904Z,12.50
2022-10-11T17:24:39.364Z,12.80
2022-10-11T17:27:06.844Z,15.90
2022-10-11T17:29:33.914Z,18.02
2022-10-11T17:32:00.984Z,78.43
2022-10-11T17:34:28.297Z,17.73
2022-10-11T17:36:55.302Z,19.08
2022-10-11T17:39:23.808Z,15.10
2022-10-11T17:41:50.860Z,13.93
2022-10-11T17:44:18.493Z,15.05
2022-10-11T17:46:45.775Z,19.38
2022-10-11T17:49:13.052Z,19.83
2022-10-11T17:51:40.334Z,21.67
2022-10-11T17:54:12.141Z,17.92
2022-10-11T17:56:39.498Z,16.27
2022-10-11T17:59:06.980Z,15.90
2022-10-11T18:01:34.094Z,17.83
2022-10-11T18:04:02.983Z,18.98
2022-10-11T18:06:32.206Z,16.30
2022-10-11T18:09:03.133Z,21.00
2022-10-11T18:11:30.898Z,16.73
2022-10-11T18:13:57.945Z,19.17
2022-10-11T18:16:27.025Z,16.92
2022-10-11T18:18:54.802Z,19.00
2022-10-11T18:21:22.032Z,19.10
2022-10-11T18:23:49.108Z,19.30
2022-10-11T18:26:20.585Z,21.73
2022-10-11T18:28:48.122Z,18.67
2022-10-11T18:31:17.745Z,19.23
2022-10-11T18:33:45.924Z,20.35
2022-10-11T18:36:14.390Z,18.88
2022-10-11T18:38:46.094Z,24.38
2022-10-11T18:41:13.865Z,20.27
2022-10-11T18:43:41.377Z,18.45
2022-10-11T18:46:12.714Z,20.02
2022-10-11T18:48:46.218Z,20.70
2022-10-11T18:51:23.291Z,21.95
2022-10-11T18:53:51.818Z,19.33
2022-10-11T18:56:20.593Z,18.67
2022-10-11T18:58:48.172Z,21.45
2022-10-11T19:01:16.646Z,22.48
2022-10-11T19:03:44.233Z,21.00
2022-10-11T19:06:16.832Z,20.55
2022-10-11T19:08:47.449Z,23.42
2022-10-11T19:11:15.630Z,19.23
2022-10-11T19:13:42.840Z,25.08
2022-10-11T19:16:12.146Z,22.30
2022-10-11T19:18:43.922Z,24.52
2022-10-11T19:21:12.915Z,25.67
2022-10-11T19:23:41.029Z,22.00
2022-10-11T19:26:09.357Z,25.20
2022-10-11T19:28:36.669Z,22.67
2022-10-11T19:31:05.066Z,23.75
2022-10-11T19:33:33.325Z,28.88
2022-10-11T19:36:02.392Z,24.20
2022-10-11T19:38:29.994Z,21.63
2022-10-11T19:40:57.034Z,24.30
2022-10-11T19:43:24.044Z,24.95
2022-10-11T19:45:51.104Z,25.33
2022-10-11T19:48:18.107Z,24.95
2022-10-11T19:50:45.117Z,20.58
2022-10-11T19:53:12.124Z,23.80
2022-10-11T19:55:42.930Z,19.92
2022-10-11T19:58:12.702Z,21.38
2022-10-11T20:00:39.684Z,22.08
2022-10-11T20:03:06.718Z,20.30
2022-10-11T20:05:36.347Z,22.35
2022-10-11T20:08:03.366Z,21.25
2022-10-11T20:10:30.576Z,21.75
2022-10-11T20:12:57.731Z,24.98
2022-10-11T20:15:24.793Z,21.75
2022-10-11T20:17:51.924Z,26.63
2022-10-11T20:20:19.627Z,23.42
2022-10-11T20:22:46.789Z,22.88
2022-10-11T20:25:13.778Z,30.40
2022-10-11T20:27:43.179Z,21.60
2022-10-11T20:30:10.847Z,20.48
2022-10-11T20:32:37.874Z,28.30
2022-10-11T20:35:05.013Z,26.17
2022-10-11T20:37:32.293Z,23.30
2022-10-11T20:39:59.448Z,24.90
2022-10-11T20:42:29.740Z,22.70
2022-10-11T20:44:57.078Z,23.08
2022-10-11T20:47:24.073Z,23.63
2022-10-11T20:49:51.098Z,24.80
2022-10-11T20:52:18.082Z,21.65
2022-10-11T20:54:45.082Z,22.45
2022-10-11T20:57:12.086Z,25.00
2022-10-11T20:59:39.252Z,26.02
2022-10-11T21:02:06.255Z,24.75
2022-10-11T21:04:33.310Z,27.02
2022-10-11T21:07:00.406Z,25.80
2022-10-11T21:09:27.477Z,22.95
2022-10-11T21:11:54.522Z,25.48
2022-10-11T21:14:21.533Z,27.13
2022-10-11T21:16:48.525Z,19.80
2022-10-11T21:19:16.100Z,20.95
2022-10-11T21:21:43.271Z,19.67
2022-10-11T21:24:10.558Z,24.95
2022-10-11T21:26:37.601Z,20.98
2022-10-11T21:29:04.718Z,22.27
2022-10-11T21:31:34.280Z,21.17
2022-10-11T21:34:02.026Z,23.77
2022-10-11T21:36:29.031Z,22.27
2022-10-11T21:38:56.741Z,22.75
2022-10-11T21:41:29.813Z,21.48
2022-10-11T21:43:57.095Z,20.70
2022-10-11T21:46:41.721Z,24.13
2022-10-11T21:49:12.413Z,21.65
2022-10-11T21:51:39.683Z,30.23
2022-10-11T21:54:06.748Z,26.42
2022-10-11T21:56:33.808Z,23.75
2022-10-11T21:59:00.800Z,31.60
2022-10-11T22:01:28.058Z,26.20
2022-10-11T22:03:55.119Z,31.70
2022-10-11T22:06:22.377Z,23.80
2022-10-11T22:08:49.925Z,25.17
2022-10-11T22:11:17.417Z,27.80
2022-10-11T22:13:44.526Z,24.35
2022-10-11T22:16:12.513Z,25.17
2022-10-11T22:18:41.202Z,23.45
2022-10-11T22:21:09.893Z,22.70
2022-10-11T22:23:36.984Z,24.25
2022-10-11T22:26:05.156Z,28.35
2022-10-11T22:28:32.537Z,23.20
2022-10-11T22:31:00.021Z,22.08
2022-10-11T22:33:27.334Z,22.77
2022-10-11T22:35:55.142Z,23.48
2022-10-11T22:38:22.408Z,27.23
2022-10-11T22:40:49.454Z,28.98
2022-10-11T22:43:16.759Z,27.60
2022-10-11T22:45:43.864Z,24.02
2022-10-11T22:48:10.984Z,23.30
2022-10-11T22:50:38.295Z,24.52
2022-10-11T22:53:06.345Z,28.13
2022-10-11T22:55:33.520Z,23.33
2022-10-11T22:58:00.771Z,21.98
2022-10-11T23:00:28.062Z,23.40
2022-10-11T23:02:55.040Z,23.80
2022-10-11T23:05:22.041Z,19.45
2022-10-11T23:07:49.278Z,23.90
2022-10-11T23:10:16.687Z,25.50
2022-10-11T23:12:43.719Z,24.33
2022-10-11T23:15:11.137Z,23.50
2022-10-11T23:17:38.619Z,28.17
2022-10-11T23:20:06.796Z,25.48
2022-10-11T23:22:33.814Z,23.05
2022-10-11T23:25:00.952Z,27.95
2022-10-11T23:27:29.730Z,23.00
2022-10-11T23:29:56.937Z,25.75
2022-10-11T23:32:23.938Z,26.95
2022-10-11T23:34:51.542Z,25.02
2022-10-11T23:37:18.532Z,26.02
2022-10-11T23:39:45.591Z,28.55
2022-10-11T23:42:12.607Z,23.48
2022-10-11T23:44:39.685Z,28.35
2022-10-11T23:47:06.691Z,33.33
2022-10-11T23:49:33.671Z,27.08
2022-10-11T23:52:00.677Z,28.30
2022-10-11T23:54:27.922Z,28.55
2022-10-11T23:56:54.911Z,27.77
2022-10-11T23:59:21.890Z,27.23
